Airfield :
LOGIN :

Register | Disclaimer

   EN    FR    IT 

 










Legend :    VFR   Marginal VFR   IFR   Intensive IFR   Very Intensive IFR
Visi :
Ceiling :
>= 8 km
>= 3000ft
5 to 8 km
1000 to 3000 ft
1500m to 5 km
500 to 1000 ft
800 to 1500m
200 to 500 ft
< 800m
< 200 ft
Symbols :   Thunderstorms  Fog  Heavy snow  Heavy precipitations  Wind > 20 kt
SIGMETs :     Misc.  Thunderstorms  Icing  Turbulence  Mountain Waves  Volcanic Ashes






- Airport Elevation : 256 ft
- IATA code : CFR


LFRK - Caen

CURRENT METAR :
  • 301530Z AUTO 21007KT 7000 RA FEW039/// OVC060/// //////CB 12/10 Q1014 TEMPO VRB15G30KT 4000 SHRA

EXPIRED METARs :
  • 301500Z AUTO 20006KT 180V260 9999 +TSRA FEW018/// BKN037/// BKN046/// ///CB 13/10 Q1014 TEMPO VRB15G30KT 2000 TSRAGS
  • 301430Z AUTO 30005KT 250V360 9999 FEW048/// BKN058/// OVC072/// ///CB 15/12 Q1014 TEMPO VRB15G30KT 2000 TSRAGS
  • 301400Z AUTO 24012KT 8000 RA FEW015/// SCT041/// BKN049/// ///CB 14/11 Q1014 TEMPO VRB15G30KT 2000 TSRAGS
  • 301330Z AUTO 32010KT 9999 FEW033/// SCT042/// BKN058/// ///CB 17/10 Q1013 TEMPO VRB15G30KT 2000 TSRAGS
  • 301300Z AUTO VRB03KT 9999 BKN040/// BKN056/// OVC072/// ///CB 18/10 Q1013 TEMPO VRB15G30KT 2000 TSRAGS

TAF TAF LFRK
Valid from the 30 at 15:00 until the 01 at 00:00 UTC


301400Z 3015/3024 29006KT 9999 SCT035
TEMPO 3015/3021 4000 SHRA BKN025CB
PROB40
TEMPO 3015/3017 VRB15G30KT 2000 TSRAGS BKN015CB
Met : +33 2 31 26 68 11



MET'MAP, your aeronautical weather chart ! - Copyright ORBIFLY December 2007 - Disclaimer

ORBIFLY MET'MAP TEAM :

Programming & Development : Alexandra Zaïnal
Original concept : Baudouin d'Aumeries
Technical & hardware support : Manuel Goepfert
Assistance : Marc-Olivier Méhu




SOURCES & CREDITS :

   NOAA